createdAt,value
2019-02-16T00:00:09.808Z,3.43
2019-02-16T00:03:17.672Z,3.43
2019-02-16T00:06:24.204Z,3.60
2019-02-16T00:09:30.449Z,3.47
2019-02-16T00:12:36.911Z,3.93
2019-02-16T00:15:43.744Z,3.47
2019-02-16T00:18:50.192Z,3.80
2019-02-16T00:21:56.835Z,3.60
2019-02-16T00:25:03.247Z,3.40
2019-02-16T00:28:09.690Z,3.87
2019-02-16T00:31:16.239Z,3.50
2019-02-16T00:34:22.583Z,3.70
2019-02-16T00:37:29.014Z,4.30
2019-02-16T00:40:35.262Z,4.30
2019-02-16T00:43:41.840Z,4.47
2019-02-16T00:46:48.572Z,4.40
2019-02-16T00:49:55.142Z,4.63
2019-02-16T00:53:01.472Z,5.17
2019-02-16T00:56:07.800Z,5.83
2019-02-16T00:59:14.169Z,5.90
2019-02-16T01:02:20.555Z,5.53
2019-02-16T01:05:27.109Z,5.87
2019-02-16T01:08:33.476Z,5.60
2019-02-16T01:11:39.931Z,6.90
2019-02-16T01:14:46.272Z,6.90
2019-02-16T01:17:52.897Z,6.13
2019-02-16T01:20:59.122Z,6.40
2019-02-16T01:24:05.544Z,5.72
2019-02-16T01:27:11.872Z,5.87
2019-02-16T01:30:18.228Z,6.33
2019-02-16T01:33:24.593Z,5.77
2019-02-16T01:36:30.868Z,5.93
2019-02-16T01:39:37.186Z,6.10
2019-02-16T01:42:43.439Z,6.97
2019-02-16T01:45:49.775Z,6.17
2019-02-16T01:48:56.131Z,7.22
2019-02-16T01:52:02.421Z,7.07
2019-02-16T01:55:10.542Z,6.70
2019-02-16T01:58:16.918Z,7.07
2019-02-16T02:01:23.617Z,7.03
2019-02-16T02:04:29.889Z,7.40
2019-02-16T02:07:36.242Z,6.80
2019-02-16T02:10:42.504Z,7.43
2019-02-16T02:13:48.919Z,6.13
2019-02-16T02:16:55.214Z,7.03
2019-02-16T02:20:01.702Z,7.43
2019-02-16T02:23:08.054Z,7.17
2019-02-16T02:26:14.394Z,7.57
2019-02-16T02:29:21.078Z,7.30
2019-02-16T02:32:27.443Z,8.23
2019-02-16T02:35:33.821Z,7.97
2019-02-16T02:38:40.148Z,7.80
2019-02-16T02:41:46.606Z,8.03
2019-02-16T02:44:52.964Z,8.10
2019-02-16T02:47:59.317Z,8.23
2019-02-16T02:51:05.617Z,8.83
2019-02-16T02:54:11.980Z,8.10
2019-02-16T02:57:18.339Z,8.77
2019-02-16T03:00:24.726Z,8.70
2019-02-16T03:03:31.000Z,8.30
2019-02-16T03:06:37.343Z,8.80
2019-02-16T03:09:43.715Z,7.97
2019-02-16T03:12:50.066Z,7.97
2019-02-16T03:15:56.419Z,7.70
2019-02-16T03:19:02.748Z,8.20
2019-02-16T03:22:09.168Z,8.07
2019-02-16T03:25:15.507Z,7.97
2019-02-16T03:28:38.063Z,8.40
2019-02-16T03:32:09.600Z,8.40
2019-02-16T03:36:09.213Z,8.37
2019-02-16T03:39:18.636Z,7.80
2019-02-16T03:42:25.027Z,7.50
2019-02-16T03:45:31.434Z,8.40
2019-02-16T03:48:37.810Z,7.60
2019-02-16T03:51:44.137Z,7.73
2019-02-16T03:54:50.435Z,7.83
2019-02-16T03:57:56.747Z,7.17
2019-02-16T04:01:03.079Z,7.57
2019-02-16T04:04:09.326Z,6.97
2019-02-16T04:07:15.694Z,7.57
2019-02-16T04:10:21.957Z,8.37
2019-02-16T04:13:28.284Z,7.20
2019-02-16T04:16:34.720Z,7.37
2019-02-16T04:19:41.076Z,7.77
2019-02-16T04:22:47.455Z,7.87
2019-02-16T04:25:53.809Z,7.40
2019-02-16T04:29:00.147Z,7.50
2019-02-16T04:32:06.441Z,7.40
2019-02-16T04:35:12.698Z,6.67
2019-02-16T04:38:18.962Z,7.27
2019-02-16T04:41:25.442Z,7.92
2019-02-16T04:44:31.864Z,7.20
2019-02-16T04:47:38.139Z,7.20
2019-02-16T04:50:44.730Z,7.10
2019-02-16T04:53:51.205Z,7.60
2019-02-16T04:56:57.742Z,7.37
2019-02-16T05:00:04.268Z,6.83
2019-02-16T05:03:11.846Z,8.20
2019-02-16T05:06:19.691Z,7.97
2019-02-16T05:09:26.045Z,7.80
2019-02-16T05:12:32.426Z,7.00
2019-02-16T05:15:38.888Z,8.00
2019-02-16T05:18:45.364Z,7.40
2019-02-16T05:21:51.996Z,7.67
2019-02-16T05:24:58.438Z,7.60
2019-02-16T05:28:04.808Z,7.90
2019-02-16T05:31:11.236Z,7.83
2019-02-16T05:34:20.499Z,7.43
2019-02-16T05:37:26.892Z,7.67
2019-02-16T05:40:33.286Z,7.67
2019-02-16T05:43:39.676Z,7.70
2019-02-16T05:46:46.120Z,7.20
2019-02-16T05:49:52.387Z,7.20
2019-02-16T05:52:58.733Z,6.30
2019-02-16T05:56:05.303Z,7.90
2019-02-16T05:59:12.537Z,7.60
2019-02-16T06:02:18.886Z,7.93
2019-02-16T06:05:25.215Z,7.90
2019-02-16T06:08:31.607Z,7.50
2019-02-16T06:11:38.507Z,7.40
2019-02-16T06:14:44.926Z,6.53
2019-02-16T06:17:51.298Z,7.03
2019-02-16T06:20:57.820Z,7.00
2019-02-16T06:24:04.256Z,7.05
2019-02-16T06:27:10.669Z,6.40
2019-02-16T06:30:17.115Z,7.60
2019-02-16T06:33:23.527Z,7.33
2019-02-16T06:36:48.060Z,7.20
2019-02-16T06:39:54.603Z,6.27
2019-02-16T06:43:01.478Z,7.60
2019-02-16T06:46:08.019Z,7.33
2019-02-16T06:49:18.796Z,6.77
2019-02-16T06:52:25.155Z,7.23
2019-02-16T06:55:39.688Z,7.70
2019-02-16T06:58:46.188Z,7.33
2019-02-16T07:01:52.557Z,7.60
2019-02-16T07:04:58.994Z,7.30
2019-02-16T07:08:05.374Z,7.13
2019-02-16T07:11:11.728Z,7.00
2019-02-16T07:14:18.514Z,7.30
2019-02-16T07:17:47.868Z,7.77
2019-02-16T07:20:54.223Z,6.93
2019-02-16T07:24:00.608Z,7.05
2019-02-16T07:27:06.904Z,6.70
2019-02-16T07:30:13.327Z,7.27
2019-02-16T07:33:19.688Z,6.70
2019-02-16T07:36:26.647Z,7.42
2019-02-16T07:39:32.925Z,6.50
2019-02-16T07:42:57.504Z,6.70
2019-02-16T07:46:10.324Z,7.00
2019-02-16T07:49:23.159Z,6.93
2019-02-16T07:52:35.030Z,6.53
2019-02-16T07:55:48.570Z,6.60
2019-02-16T07:59:11.834Z,7.20
2019-02-16T08:02:31.319Z,7.20
2019-02-16T08:06:11.986Z,6.73
2019-02-16T08:09:37.396Z,6.30
2019-02-16T08:13:10.649Z,6.93
2019-02-16T08:16:46.216Z,6.67
2019-02-16T08:20:14.331Z,6.83
2019-02-16T08:23:40.398Z,6.30
2019-02-16T08:26:56.464Z,5.83
2019-02-16T08:30:23.098Z,6.55
2019-02-16T08:33:37.663Z,6.33
2019-02-16T08:37:06.083Z,6.30
2019-02-16T08:40:34.537Z,6.60
2019-02-16T08:43:56.768Z,6.67
2019-02-16T08:47:16.431Z,5.60
2019-02-16T08:50:46.121Z,5.33
2019-02-16T08:54:09.590Z,5.90
2019-02-16T08:57:25.365Z,5.67
2019-02-16T09:00:49.510Z,6.00
2019-02-16T09:04:15.018Z,6.00
2019-02-16T09:07:35.634Z,5.85
2019-02-16T09:10:54.209Z,5.90
2019-02-16T09:14:25.601Z,6.00
2019-02-16T09:17:52.478Z,5.90
2019-02-16T09:21:18.252Z,5.17
2019-02-16T09:24:48.280Z,6.30
2019-02-16T09:28:04.238Z,5.80
2019-02-16T09:31:16.172Z,6.10
2019-02-16T09:34:35.420Z,6.40
2019-02-16T09:38:03.888Z,6.63
2019-02-16T09:41:38.317Z,5.63
2019-02-16T09:44:59.352Z,5.60
2019-02-16T09:48:14.711Z,6.40
2019-02-16T09:51:31.715Z,5.83
2019-02-16T09:55:06.650Z,5.73
2019-02-16T09:58:28.412Z,5.17
2019-02-16T10:02:00.459Z,4.95
2019-02-16T10:05:26.400Z,5.50
2019-02-16T10:08:48.683Z,5.27
2019-02-16T10:12:11.043Z,5.30
2019-02-16T10:15:51.441Z,5.40
2019-02-16T10:19:13.117Z,5.92
2019-02-16T10:22:36.249Z,5.70
2019-02-16T10:26:00.375Z,4.90
2019-02-16T10:29:26.452Z,5.37
2019-02-16T10:32:52.238Z,5.20
2019-02-16T10:36:07.793Z,5.27
2019-02-16T10:39:39.124Z,5.05
2019-02-16T10:43:16.556Z,5.10
2019-02-16T10:46:30.573Z,5.07
2019-02-16T10:49:54.662Z,5.17
2019-02-16T10:53:24.685Z,5.20
2019-02-16T10:56:43.857Z,5.20
2019-02-16T11:00:08.061Z,5.80
2019-02-16T11:03:32.248Z,5.83
2019-02-16T11:06:57.624Z,5.50
2019-02-16T11:10:14.231Z,5.17
2019-02-16T11:13:38.684Z,5.77
2019-02-16T11:17:12.997Z,6.23
2019-02-16T11:20:41.103Z,5.87
2019-02-16T11:23:57.665Z,5.50
2019-02-16T11:27:12.925Z,6.30
2019-02-16T11:30:44.507Z,5.80
2019-02-16T11:34:03.600Z,5.37
2019-02-16T11:37:25.126Z,6.30
2019-02-16T11:40:56.518Z,5.70
2019-02-16T11:44:21.064Z,6.07
2019-02-16T11:47:45.276Z,6.20
2019-02-16T11:51:15.267Z,6.60
2019-02-16T11:54:55.769Z,6.73
2019-02-16T11:58:25.527Z,6.37
2019-02-16T12:01:44.564Z,6.47
2019-02-16T12:05:31.643Z,6.40
2019-02-16T12:08:56.942Z,6.43
2019-02-16T12:12:40.907Z,6.87
2019-02-16T12:15:57.601Z,6.80
2019-02-16T12:19:31.640Z,7.28
2019-02-16T12:22:46.840Z,6.80
2019-02-16T12:26:13.339Z,7.03
2019-02-16T12:29:37.652Z,7.30
2019-02-16T12:33:00.128Z,7.03
2019-02-16T12:36:22.201Z,7.10
2019-02-16T12:39:56.697Z,7.10
2019-02-16T12:43:24.897Z,7.57
2019-02-16T12:46:49.958Z,7.20
2019-02-16T12:50:17.188Z,7.40
2019-02-16T12:53:31.638Z,8.20
2019-02-16T12:56:59.808Z,8.27
2019-02-16T13:00:27.369Z,7.73
2019-02-16T13:04:08.228Z,7.37
2019-02-16T13:07:43.846Z,8.00
2019-02-16T13:11:02.999Z,8.10
2019-02-16T13:14:22.062Z,7.67
2019-02-16T13:17:47.435Z,8.70
2019-02-16T13:21:12.183Z,9.30
2019-02-16T13:24:30.130Z,8.53
2019-02-16T13:27:50.187Z,9.17
2019-02-16T13:31:23.286Z,8.50
2019-02-16T13:34:50.980Z,9.13
2019-02-16T13:38:06.616Z,8.57
2019-02-16T13:41:28.009Z,8.43
2019-02-16T13:44:47.852Z,9.23
2019-02-16T13:48:13.493Z,7.90
2019-02-16T13:51:26.089Z,9.00
2019-02-16T13:54:49.867Z,9.00
2019-02-16T13:58:33.282Z,8.70
2019-02-16T14:01:58.672Z,8.93
2019-02-16T14:05:14.732Z,8.20
2019-02-16T14:08:29.292Z,8.07
2019-02-16T14:11:43.144Z,8.35
2019-02-16T14:15:04.150Z,8.43
2019-02-16T14:18:10.545Z,8.17
2019-02-16T14:21:17.999Z,8.08
2019-02-16T14:24:42.357Z,7.73
2019-02-16T14:27:48.728Z,8.10
2019-02-16T14:30:55.166Z,7.80
2019-02-16T14:34:01.695Z,8.25
2019-02-16T14:37:26.013Z,7.60
2019-02-16T14:40:33.159Z,8.03
2019-02-16T14:43:39.532Z,7.63
2019-02-16T14:46:46.959Z,7.62
2019-02-16T14:49:53.330Z,7.87
2019-02-16T14:53:00.723Z,8.00
2019-02-16T14:56:07.118Z,7.93
2019-02-16T14:59:13.392Z,8.20
2019-02-16T15:02:20.324Z,7.87
2019-02-16T15:05:27.160Z,8.00
2019-02-16T15:08:33.711Z,8.57
2019-02-16T15:11:40.196Z,7.63
2019-02-16T15:14:46.822Z,7.97
2019-02-16T15:17:53.246Z,8.17
2019-02-16T15:20:59.681Z,7.43
2019-02-16T15:24:08.296Z,7.87
2019-02-16T15:27:15.219Z,7.20
2019-02-16T15:30:21.766Z,7.33
2019-02-16T15:33:29.733Z,7.50
2019-02-16T15:36:36.179Z,7.57
2019-02-16T15:39:43.107Z,7.57
2019-02-16T15:42:50.419Z,7.80
2019-02-16T15:45:58.374Z,7.20
2019-02-16T15:49:04.838Z,7.30
2019-02-16T15:52:11.176Z,7.10
2019-02-16T15:55:18.672Z,6.93
2019-02-16T15:58:25.048Z,7.50
2019-02-16T16:01:31.478Z,9.23
2019-02-16T16:04:38.055Z,9.47
2019-02-16T16:07:47.036Z,10.60
2019-02-16T16:11:18.196Z,11.90
2019-02-16T16:14:50.288Z,12.40
2019-02-16T16:18:24.722Z,13.93
2019-02-16T16:21:49.254Z,15.13
2019-02-16T16:25:13.256Z,16.03
2019-02-16T16:29:00.171Z,16.87
2019-02-16T16:32:19.106Z,16.90
2019-02-16T16:35:44.560Z,17.07
2019-02-16T16:39:13.184Z,17.87
2019-02-16T16:42:54.576Z,17.83
2019-02-16T16:46:10.807Z,17.73
2019-02-16T16:49:45.201Z,18.03
2019-02-16T16:53:22.764Z,18.57
2019-02-16T16:56:38.601Z,19.23
2019-02-16T17:00:07.012Z,20.07
2019-02-16T17:03:32.485Z,18.37
2019-02-16T17:06:55.284Z,17.67
2019-02-16T17:10:35.929Z,17.63
2019-02-16T17:14:16.525Z,18.07
2019-02-16T17:17:39.575Z,17.77
2019-02-16T17:21:02.226Z,17.77
2019-02-16T17:24:15.974Z,17.83
2019-02-16T17:27:40.067Z,17.33
2019-02-16T17:30:55.590Z,18.30
2019-02-16T17:34:24.044Z,20.10
2019-02-16T17:37:52.216Z,19.27
2019-02-16T17:41:16.697Z,20.30
2019-02-16T17:44:42.189Z,19.50
2019-02-16T17:48:04.959Z,18.47
2019-02-16T17:51:20.238Z,20.17
2019-02-16T17:54:39.911Z,20.03
2019-02-16T17:57:58.508Z,18.67
2019-02-16T18:01:27.153Z,20.13
2019-02-16T18:04:54.394Z,20.40
2019-02-16T18:08:34.847Z,19.37
2019-02-16T18:11:49.662Z,19.47
2019-02-16T18:15:11.278Z,19.70
2019-02-16T18:18:28.423Z,19.77
2019-02-16T18:21:52.325Z,20.43
2019-02-16T18:25:16.689Z,19.47
2019-02-16T18:28:57.222Z,20.30
2019-02-16T18:32:13.278Z,19.67
2019-02-16T18:35:39.552Z,18.93
2019-02-16T18:39:08.739Z,19.20
2019-02-16T18:42:37.404Z,19.97
2019-02-16T18:46:01.584Z,19.57
2019-02-16T18:49:33.585Z,18.57
2019-02-16T18:52:51.396Z,18.60
2019-02-16T18:56:22.906Z,18.60
2019-02-16T18:59:48.806Z,19.40
2019-02-16T19:03:05.405Z,18.50
2019-02-16T19:06:35.410Z,18.90
2019-02-16T19:10:00.860Z,20.07
2019-02-16T19:13:27.839Z,19.40
2019-02-16T19:17:05.441Z,19.45
2019-02-16T19:20:30.140Z,19.37
2019-02-16T19:23:43.773Z,19.77
2019-02-16T19:27:16.761Z,20.40
2019-02-16T19:30:31.721Z,19.30
2019-02-16T19:33:57.165Z,18.83
2019-02-16T19:37:34.786Z,19.80
2019-02-16T19:40:59.411Z,19.60
2019-02-16T19:44:37.318Z,18.00
2019-02-16T19:48:18.386Z,21.00
2019-02-16T19:51:52.912Z,19.23
2019-02-16T19:55:04.861Z,19.30
2019-02-16T19:58:29.213Z,20.90
2019-02-16T20:01:50.456Z,18.52
2019-02-16T20:05:07.038Z,18.93
2019-02-16T20:08:30.763Z,19.40
2019-02-16T20:12:14.644Z,18.23
2019-02-16T20:15:45.387Z,19.97
2019-02-16T20:19:10.865Z,19.20
2019-02-16T20:22:44.956Z,19.63
2019-02-16T20:26:12.611Z,17.83
2019-02-16T20:29:27.007Z,17.57
2019-02-16T20:32:44.748Z,18.37
2019-02-16T20:36:09.012Z,17.60
2019-02-16T20:39:40.476Z,17.50
2019-02-16T20:42:55.892Z,17.92
2019-02-16T20:46:24.154Z,18.23
2019-02-16T20:49:48.516Z,18.77
2019-02-16T20:53:12.791Z,17.27
2019-02-16T20:56:28.402Z,18.10
2019-02-16T20:59:49.504Z,18.27
2019-02-16T21:03:16.210Z,17.17
2019-02-16T21:06:51.459Z,19.85
2019-02-16T21:10:07.721Z,17.73
2019-02-16T21:13:31.472Z,17.30
2019-02-16T21:17:08.964Z,19.53
2019-02-16T21:20:44.082Z,17.20
2019-02-16T21:24:08.765Z,18.03
2019-02-16T21:27:39.995Z,17.90
2019-02-16T21:31:07.805Z,17.60
2019-02-16T21:34:37.127Z,19.10
2019-02-16T21:38:03.187Z,18.07
2019-02-16T21:41:16.848Z,18.53
2019-02-16T21:44:38.879Z,16.70
2019-02-16T21:48:04.294Z,17.63
2019-02-16T21:51:28.764Z,17.87
2019-02-16T21:55:00.367Z,18.93
2019-02-16T21:58:18.277Z,18.47
2019-02-16T22:01:43.750Z,17.65
2019-02-16T22:05:11.948Z,17.27
2019-02-16T22:08:33.081Z,17.53
2019-02-16T22:11:58.525Z,17.60
2019-02-16T22:15:05.677Z,17.93
2019-02-16T22:18:12.121Z,17.47
2019-02-16T22:21:18.901Z,17.33
2019-02-16T22:24:25.546Z,16.60
2019-02-16T22:27:31.962Z,15.80
2019-02-16T22:30:38.487Z,16.37
2019-02-16T22:33:45.014Z,16.57
2019-02-16T22:36:51.442Z,16.53
2019-02-16T22:39:57.860Z,16.27
2019-02-16T22:43:04.371Z,16.07
2019-02-16T22:46:10.842Z,16.67
2019-02-16T22:49:17.393Z,16.70
2019-02-16T22:52:23.843Z,16.00
2019-02-16T22:55:30.646Z,16.40
2019-02-16T22:58:38.539Z,16.50
2019-02-16T23:01:45.260Z,15.80
2019-02-16T23:04:54.709Z,15.70
2019-02-16T23:08:01.040Z,14.37
2019-02-16T23:11:11.351Z,15.40
2019-02-16T23:14:17.879Z,15.97
2019-02-16T23:17:24.358Z,16.07
2019-02-16T23:20:30.777Z,15.50
2019-02-16T23:23:40.240Z,16.13
2019-02-16T23:26:46.620Z,14.83
2019-02-16T23:29:54.039Z,14.35
2019-02-16T23:33:00.459Z,15.30
2019-02-16T23:36:08.492Z,15.30
2019-02-16T23:39:15.458Z,15.73
2019-02-16T23:42:21.812Z,15.27
2019-02-16T23:45:28.080Z,16.00
2019-02-16T23:48:37.446Z,15.57
2019-02-16T23:51:47.842Z,15.47
2019-02-16T23:54:54.223Z,15.67
2019-02-16T23:58:00.766Z,15.53
